sensor_id;sensor_type;location;lat;lon;timestamp;pressure;altitude;pressure_sealevel;temperature;humidity
9525;BME280;15940;48.734;9.112;2023-05-14T00:00:29;96548.03;;;11.04;92.22
9525;BME280;15940;48.734;9.112;2023-05-14T00:02:56;96548.53;;;11.02;92.69
9525;BME280;15940;48.734;9.112;2023-05-14T00:05:23;96537.44;;;11.06;92.55
9525;BME280;15940;48.734;9.112;2023-05-14T00:07:51;96541.38;;;11.05;92.17
9525;BME280;15940;48.734;9.112;2023-05-14T00:10:18;96542.38;;;11.07;92.04
9525;BME280;15940;48.734;9.112;2023-05-14T00:16:27;96529.59;;;11.13;92.21
9525;BME280;15940;48.734;9.112;2023-05-14T00:18:54;96519.47;;;11.14;92.08
9525;BME280;15940;48.734;9.112;2023-05-14T00:21:20;96525.13;;;11.16;91.82
9525;BME280;15940;48.734;9.112;2023-05-14T00:23:49;96515.56;;;11.21;91.71
9525;BME280;15940;48.734;9.112;2023-05-14T00:26:16;96519.75;;;11.22;91.94
9525;BME280;15940;48.734;9.112;2023-05-14T00:28:42;96516.28;;;11.21;91.80
9525;BME280;15940;48.734;9.112;2023-05-14T00:31:09;96516.03;;;11.25;91.65
9525;BME280;15940;48.734;9.112;2023-05-14T00:33:36;96512.59;;;11.24;91.39
9525;BME280;15940;48.734;9.112;2023-05-14T00:36:03;96518.75;;;11.19;91.33
9525;BME280;15940;48.734;9.112;2023-05-14T00:38:30;96507.66;;;11.17;90.93
9525;BME280;15940;48.734;9.112;2023-05-14T00:40:59;96502.22;;;11.11;91.83
9525;BME280;15940;48.734;9.112;2023-05-14T00:43:26;96511.09;;;11.12;91.91
9525;BME280;15940;48.734;9.112;2023-05-14T00:45:54;96500.50;;;11.14;91.84
9525;BME280;15940;48.734;9.112;2023-05-14T00:48:21;96502.44;;;11.08;91.31
9525;BME280;15940;48.734;9.112;2023-05-14T00:50:49;96501.94;;;10.98;91.40
9525;BME280;15940;48.734;9.112;2023-05-14T00:53:17;96501.22;;;10.92;92.02
9525;BME280;15940;48.734;9.112;2023-05-14T00:55:44;96505.63;;;10.90;92.32
9525;BME280;15940;48.734;9.112;2023-05-14T00:58:13;96503.44;;;10.94;92.78
9525;BME280;15940;48.734;9.112;2023-05-14T01:00:41;96498.28;;;11.01;92.40
9525;BME280;15940;48.734;9.112;2023-05-14T01:03:08;96496.53;;;11.04;92.34
9525;BME280;15940;48.734;9.112;2023-05-14T01:05:41;96499.00;;;11.02;92.00
9525;BME280;15940;48.734;9.112;2023-05-14T01:08:22;96497.28;;;11.04;92.21
9525;BME280;15940;48.734;9.112;2023-05-14T01:10:58;96493.06;;;10.98;91.89
9525;BME280;15940;48.734;9.112;2023-05-14T01:13:35;96486.69;;;10.95;91.82
9525;BME280;15940;48.734;9.112;2023-05-14T01:16:06;96492.06;;;10.90;91.29
9525;BME280;15940;48.734;9.112;2023-05-14T01:18:39;96488.91;;;10.91;91.96
9525;BME280;15940;48.734;9.112;2023-05-14T01:21:24;96488.38;;;10.87;92.45
9525;BME280;15940;48.734;9.112;2023-05-14T01:23:51;96486.16;;;10.85;92.11
9525;BME280;15940;48.734;9.112;2023-05-14T01:26:18;96478.28;;;10.87;92.44
9525;BME280;15940;48.734;9.112;2023-05-14T01:28:46;96485.66;;;10.87;91.81
9525;BME280;15940;48.734;9.112;2023-05-14T01:31:17;96479.03;;;10.82;92.18
9525;BME280;15940;48.734;9.112;2023-05-14T01:33:50;96476.78;;;10.75;91.95
9525;BME280;15940;48.734;9.112;2023-05-14T01:36:17;96475.53;;;10.65;91.70
9525;BME280;15940;48.734;9.112;2023-05-14T01:38:46;96485.34;;;10.57;91.36
9525;BME280;15940;48.734;9.112;2023-05-14T01:41:16;96481.38;;;10.47;92.23
9525;BME280;15940;48.734;9.112;2023-05-14T01:43:44;96480.34;;;10.39;91.98
9525;BME280;15940;48.734;9.112;2023-05-14T01:46:11;96478.59;;;10.24;91.83
9525;BME280;15940;48.734;9.112;2023-05-14T01:48:38;96477.28;;;10.14;91.67
9525;BME280;15940;48.734;9.112;2023-05-14T01:51:06;96479.44;;;10.05;91.52
9525;BME280;15940;48.734;9.112;2023-05-14T01:53:33;96474.72;;;9.99;92.05
9525;BME280;15940;48.734;9.112;2023-05-14T01:56:01;96472.72;;;9.94;92.17
9525;BME280;15940;48.734;9.112;2023-05-14T01:58:28;96478.38;;;9.91;92.49
9525;BME280;15940;48.734;9.112;2023-05-14T02:00:55;96470.69;;;9.84;92.74
9525;BME280;15940;48.734;9.112;2023-05-14T02:03:22;96473.41;;;9.84;93.36
9525;BME280;15940;48.734;9.112;2023-05-14T02:05:49;96476.09;;;9.78;92.91
9525;BME280;15940;48.734;9.112;2023-05-14T02:08:16;96470.94;;;9.80;93.73
9525;BME280;15940;48.734;9.112;2023-05-14T02:10:42;96469.22;;;9.83;94.19
9525;BME280;15940;48.734;9.112;2023-05-14T02:13:11;96479.31;;;9.82;94.42
9525;BME280;15940;48.734;9.112;2023-05-14T02:15:38;96473.91;;;9.82;94.33
9525;BME280;15940;48.734;9.112;2023-05-14T02:18:05;96477.59;;;9.85;95.07
9525;BME280;15940;48.734;9.112;2023-05-14T02:20:32;96477.13;;;9.86;94.72
9525;BME280;15940;48.734;9.112;2023-05-14T02:22:58;96475.16;;;9.87;94.66
9525;BME280;15940;48.734;9.112;2023-05-14T02:25:25;96480.09;;;9.88;94.42
9525;BME280;15940;48.734;9.112;2023-05-14T02:27:52;96471.97;;;9.88;94.99
9525;BME280;15940;48.734;9.112;2023-05-14T02:30:21;96479.34;;;9.88;94.73
9525;BME280;15940;48.734;9.112;2023-05-14T02:32:48;96467.81;;;9.93;95.82
9525;BME280;15940;48.734;9.112;2023-05-14T02:35:15;96472.22;;;9.90;94.91
9525;BME280;15940;48.734;9.112;2023-05-14T02:37:42;96475.91;;;9.87;94.59
9525;BME280;15940;48.734;9.112;2023-05-14T02:40:10;96478.56;;;9.82;94.65
9525;BME280;15940;48.734;9.112;2023-05-14T02:42:36;96477.63;;;9.90;96.82
9525;BME280;15940;48.734;9.112;2023-05-14T02:45:05;96473.25;;;9.98;96.50
9525;BME280;15940;48.734;9.112;2023-05-14T02:47:33;96475.25;;;10.03;96.09
9525;BME280;15940;48.734;9.112;2023-05-14T02:50:00;96477.97;;;10.09;95.79
9525;BME280;15940;48.734;9.112;2023-05-14T02:52:29;96478.97;;;10.06;95.12
9525;BME280;15940;48.734;9.112;2023-05-14T02:54:56;96477.97;;;10.09;95.31
9525;BME280;15940;48.734;9.112;2023-05-14T02:57:23;96477.25;;;10.09;94.45
9525;BME280;15940;48.734;9.112;2023-05-14T02:59:50;96482.41;;;10.12;95.16
9525;BME280;15940;48.734;9.112;2023-05-14T03:02:17;96481.72;;;10.17;95.28
9525;BME280;15940;48.734;9.112;2023-05-14T03:04:45;96484.16;;;10.15;94.67
9525;BME280;15940;48.734;9.112;2023-05-14T03:07:12;96484.63;;;10.14;94.62
9525;BME280;15940;48.734;9.112;2023-05-14T03:09:39;96484.38;;;10.12;94.08
9525;BME280;15940;48.734;9.112;2023-05-14T03:12:07;96489.03;;;10.06;94.22
9525;BME280;15940;48.734;9.112;2023-05-14T03:14:34;96480.88;;;10.00;94.08
9525;BME280;15940;48.734;9.112;2023-05-14T03:17:01;96491.66;;;9.94;94.15
9525;BME280;15940;48.734;9.112;2023-05-14T03:19:28;96484.34;;;10.00;95.15
9525;BME280;15940;48.734;9.112;2023-05-14T03:21:56;96486.09;;;10.09;95.05
9525;BME280;15940;48.734;9.112;2023-05-14T03:24:23;96481.19;;;10.08;94.42
9525;BME280;15940;48.734;9.112;2023-05-14T03:26:50;96469.38;;;10.05;95.02
9525;BME280;15940;48.734;9.112;2023-05-14T03:29:24;96473.31;;;10.10;94.00
9525;BME280;15940;48.734;9.112;2023-05-14T03:31:50;96478.69;;;10.04;94.51
9525;BME280;15940;48.734;9.112;2023-05-14T03:34:18;96480.69;;;10.09;94.61
9525;BME280;15940;48.734;9.112;2023-05-14T03:36:45;96481.69;;;10.12;95.35
9525;BME280;15940;48.734;9.112;2023-05-14T03:39:14;96479.50;;;10.21;94.95
9525;BME280;15940;48.734;9.112;2023-05-14T03:41:44;96479.50;;;10.16;94.60
9525;BME280;15940;48.734;9.112;2023-05-14T03:44:11;96476.78;;;10.16;94.36
9525;BME280;15940;48.734;9.112;2023-05-14T03:46:38;96477.97;;;10.09;94.11
9525;BME280;15940;48.734;9.112;2023-05-14T03:49:06;96481.69;;;10.12;94.19
9525;BME280;15940;48.734;9.112;2023-05-14T03:51:33;96477.72;;;10.07;94.07
9525;BME280;15940;48.734;9.112;2023-05-14T03:54:00;96477.19;;;10.03;94.61
9525;BME280;15940;48.734;9.112;2023-05-14T03:56:28;96476.47;;;10.02;94.49
9525;BME280;15940;48.734;9.112;2023-05-14T03:58:55;96478.91;;;10.00;94.33
9525;BME280;15940;48.734;9.112;2023-05-14T04:01:22;96473.75;;;10.02;94.44
9525;BME280;15940;48.734;9.112;2023-05-14T04:03:49;96472.72;;;9.94;93.99
9525;BME280;15940;48.734;9.112;2023-05-14T04:06:16;96467.81;;;9.93;94.14
9525;BME280;15940;48.734;9.112;2023-05-14T04:08:43;96459.50;;;10.02;95.23
9525;BME280;15940;48.734;9.112;2023-05-14T04:11:09;96469.66;;;10.18;95.17
9525;BME280;15940;48.734;9.112;2023-05-14T04:13:38;96473.63;;;10.23;94.86
9525;BME280;15940;48.734;9.112;2023-05-14T04:16:05;96473.19;;;10.30;94.33
9525;BME280;15940;48.734;9.112;2023-05-14T04:18:32;96469.53;;;10.33;94.06
9525;BME280;15940;48.734;9.112;2023-05-14T04:21:00;96476.41;;;10.34;93.66
9525;BME280;15940;48.734;9.112;2023-05-14T04:23:27;96471.69;;;10.29;93.68
9525;BME280;15940;48.734;9.112;2023-05-14T04:25:54;96469.72;;;10.24;93.45
9525;BME280;15940;48.734;9.112;2023-05-14T04:28:21;96473.34;;;10.21;93.69
9525;BME280;15940;48.734;9.112;2023-05-14T04:30:49;96467.03;;;10.24;93.84
9525;BME280;15940;48.734;9.112;2023-05-14T04:33:16;96471.00;;;10.34;93.71
9525;BME280;15940;48.734;9.112;2023-05-14T04:35:43;96465.84;;;10.36;93.08
9525;BME280;15940;48.734;9.112;2023-05-14T04:38:10;96471.75;;;10.40;92.89
9525;BME280;15940;48.734;9.112;2023-05-14T04:40:39;96471.25;;;10.36;93.03
9525;BME280;15940;48.734;9.112;2023-05-14T04:43:06;96475.19;;;10.35;93.05
9525;BME280;15940;48.734;9.112;2023-05-14T04:45:33;96468.28;;;10.34;93.05
9525;BME280;15940;48.734;9.112;2023-05-14T04:48:02;96462.34;;;10.24;92.61
9525;BME280;15940;48.734;9.112;2023-05-14T04:50:29;96464.03;;;10.22;93.57
9525;BME280;15940;48.734;9.112;2023-05-14T04:52:56;96463.28;;;10.21;93.34
9525;BME280;15940;48.734;9.112;2023-05-14T04:55:23;96472.13;;;10.16;93.12
9525;BME280;15940;48.734;9.112;2023-05-14T04:57:50;96467.94;;;10.15;92.93
9525;BME280;15940;48.734;9.112;2023-05-14T05:00:17;96472.34;;;10.13;92.71
9525;BME280;15940;48.734;9.112;2023-05-14T05:02:46;96463.75;;;10.14;92.99
9525;BME280;15940;48.734;9.112;2023-05-14T05:05:14;96468.94;;;10.18;93.46
9525;BME280;15940;48.734;9.112;2023-05-14T05:07:41;96475.13;;;10.24;93.50
9525;BME280;15940;48.734;9.112;2023-05-14T05:10:08;96469.72;;;10.24;93.54
9525;BME280;15940;48.734;9.112;2023-05-14T05:12:35;96476.13;;;10.26;93.59
9525;BME280;15940;48.734;9.112;2023-05-14T05:15:03;96469.72;;;10.29;93.09
9525;BME280;15940;48.734;9.112;2023-05-14T05:17:30;96461.84;;;10.32;93.21
9525;BME280;15940;48.734;9.112;2023-05-14T05:19:57;96460.16;;;10.34;93.12
9525;BME280;15940;48.734;9.112;2023-05-14T05:22:25;96467.34;;;10.43;92.85
9525;BME280;15940;48.734;9.112;2023-05-14T05:24:52;96475.47;;;10.48;92.54
9525;BME280;15940;48.734;9.112;2023-05-14T05:27:19;96475.94;;;10.41;92.78
9525;BME280;15940;48.734;9.112;2023-05-14T05:29:46;96471.50;;;10.38;92.49
9525;BME280;15940;48.734;9.112;2023-05-14T05:32:13;96461.16;;;10.37;92.65
9525;BME280;15940;48.734;9.112;2023-05-14T05:34:40;96463.84;;;10.37;92.33
9525;BME280;15940;48.734;9.112;2023-05-14T05:37:07;96469.03;;;10.40;92.71
9525;BME280;15940;48.734;9.112;2023-05-14T05:39:38;96466.34;;;10.46;92.39
9525;BME280;15940;48.734;9.112;2023-05-14T05:42:06;96473.00;;;10.50;92.30
9525;BME280;15940;48.734;9.112;2023-05-14T05:44:33;96468.53;;;10.42;91.84
9525;BME280;15940;48.734;9.112;2023-05-14T05:47:00;96470.50;;;10.36;91.84
9525;BME280;15940;48.734;9.112;2023-05-14T05:49:27;96471.00;;;10.34;92.29
9525;BME280;15940;48.734;9.112;2023-05-14T05:51:54;96471.69;;;10.29;91.83
9525;BME280;15940;48.734;9.112;2023-05-14T05:54:22;96465.78;;;10.30;92.02
9525;BME280;15940;48.734;9.112;2023-05-14T05:56:51;96471.44;;;10.27;92.39
9525;BME280;15940;48.734;9.112;2023-05-14T05:59:18;96472.97;;;10.34;92.24
9525;BME280;15940;48.734;9.112;2023-05-14T06:01:45;96475.91;;;10.36;91.96
9525;BME280;15940;48.734;9.112;2023-05-14T06:04:12;96466.56;;;10.37;92.50
9525;BME280;15940;48.734;9.112;2023-05-14T06:06:39;96476.41;;;10.40;92.11
9525;BME280;15940;48.734;9.112;2023-05-14T06:09:06;96477.69;;;10.44;92.25
9525;BME280;15940;48.734;9.112;2023-05-14T06:11:33;96475.47;;;10.48;91.59
9525;BME280;15940;48.734;9.112;2023-05-14T06:14:01;96481.66;;;10.54;93.23
9525;BME280;15940;48.734;9.112;2023-05-14T06:16:29;96478.50;;;10.73;92.54
9525;BME280;15940;48.734;9.112;2023-05-14T06:18:56;96468.63;;;10.64;91.28
9525;BME280;15940;48.734;9.112;2023-05-14T06:21:23;96476.75;;;10.70;91.18
9525;BME280;15940;48.734;9.112;2023-05-14T06:23:49;96476.00;;;10.69;91.62
9525;BME280;15940;48.734;9.112;2023-05-14T06:26:16;96473.34;;;10.75;91.42
9525;BME280;15940;48.734;9.112;2023-05-14T06:28:43;96476.03;;;10.75;91.03
9525;BME280;15940;48.734;9.112;2023-05-14T06:31:12;96480.47;;;10.78;90.64
9525;BME280;15940;48.734;9.112;2023-05-14T06:33:39;96476.53;;;10.73;91.29
9525;BME280;15940;48.734;9.112;2023-05-14T06:36:07;96482.44;;;10.77;91.42
9525;BME280;15940;48.734;9.112;2023-05-14T06:38:34;96478.28;;;10.82;90.65
9525;BME280;15940;48.734;9.112;2023-05-14T06:41:01;96477.78;;;10.89;90.60
9525;BME280;15940;48.734;9.112;2023-05-14T06:43:28;96469.16;;;10.85;90.38
9525;BME280;15940;48.734;9.112;2023-05-14T06:45:54;96474.34;;;10.88;90.08
9525;BME280;15940;48.734;9.112;2023-05-14T06:48:23;96476.56;;;10.96;90.29
9525;BME280;15940;48.734;9.112;2023-05-14T06:50:52;96477.31;;;11.02;90.28
9525;BME280;15940;48.734;9.112;2023-05-14T06:53:19;96474.59;;;11.07;90.02
9525;BME280;15940;48.734;9.112;2023-05-14T06:55:46;96465.50;;;11.10;89.95
9525;BME280;15940;48.734;9.112;2023-05-14T06:58:13;96466.25;;;11.16;89.56
9525;BME280;15940;48.734;9.112;2023-05-14T07:00:40;96471.19;;;11.24;89.10
9525;BME280;15940;48.734;9.112;2023-05-14T07:03:07;96465.50;;;11.27;88.86
9525;BME280;15940;48.734;9.112;2023-05-14T07:05:35;96475.13;;;11.23;88.56
9525;BME280;15940;48.734;9.112;2023-05-14T07:08:02;96469.72;;;11.23;88.70
9525;BME280;15940;48.734;9.112;2023-05-14T07:10:29;96467.97;;;11.31;89.19
9525;BME280;15940;48.734;9.112;2023-05-14T07:12:57;96471.69;;;11.39;89.05
9525;BME280;15940;48.734;9.112;2023-05-14T07:15:24;96469.97;;;11.47;88.86
9525;BME280;15940;48.734;9.112;2023-05-14T07:17:51;96468.72;;;11.54;88.56
9525;BME280;15940;48.734;9.112;2023-05-14T07:20:17;96469.69;;;11.62;88.42
9525;BME280;15940;48.734;9.112;2023-05-14T07:22:46;96466.72;;;11.71;88.02
9525;BME280;15940;48.734;9.112;2023-05-14T07:25:12;96466.72;;;11.82;87.98
9525;BME280;15940;48.734;9.112;2023-05-14T07:27:39;96467.22;;;11.86;86.96
9525;BME280;15940;48.734;9.112;2023-05-14T07:30:07;96459.81;;;11.87;87.35
9525;BME280;15940;48.734;9.112;2023-05-14T07:32:34;96460.28;;;11.96;87.39
9525;BME280;15940;48.734;9.112;2023-05-14T07:35:01;96456.31;;;12.03;87.00
9525;BME280;15940;48.734;9.112;2023-05-14T07:37:28;96455.78;;;12.10;87.09
9525;BME280;15940;48.734;9.112;2023-05-14T07:39:56;96460.44;;;12.21;86.82
9525;BME280;15940;48.734;9.112;2023-05-14T07:42:23;96459.94;;;12.34;86.66
9525;BME280;15940;48.734;9.112;2023-05-14T07:44:51;96452.00;;;12.36;86.32
9525;BME280;15940;48.734;9.112;2023-05-14T07:47:18;96455.44;;;12.42;85.67
9525;BME280;15940;48.734;9.112;2023-05-14T07:49:45;96452.72;;;12.42;85.59
9525;BME280;15940;48.734;9.112;2023-05-14T07:52:12;96450.22;;;12.49;84.98
9525;BME280;15940;48.734;9.112;2023-05-14T07:54:39;96456.09;;;12.59;85.22
9525;BME280;15940;48.734;9.112;2023-05-14T07:57:07;96457.47;;;12.77;85.24
9525;BME280;15940;48.734;9.112;2023-05-14T07:59:34;96449.25;;;12.88;84.12
9525;BME280;15940;48.734;9.112;2023-05-14T08:02:01;96452.41;;;12.98;84.27
9525;BME280;15940;48.734;9.112;2023-05-14T08:04:28;96449.63;;;13.09;83.03
9525;BME280;15940;48.734;9.112;2023-05-14T08:06:55;96441.41;;;13.20;83.30
9525;BME280;15940;48.734;9.112;2023-05-14T08:09:23;96452.66;;;13.35;82.83
9525;BME280;15940;48.734;9.112;2023-05-14T08:11:50;96451.16;;;13.34;82.32
9525;BME280;15940;48.734;9.112;2023-05-14T08:14:18;96458.50;;;13.45;81.64
9525;BME280;15940;48.734;9.112;2023-05-14T08:16:46;96442.94;;;13.46;82.00
9525;BME280;15940;48.734;9.112;2023-05-14T08:19:14;96446.16;;;13.44;82.33
9525;BME280;15940;48.734;9.112;2023-05-14T08:21:41;96443.50;;;13.38;81.70
9525;BME280;15940;48.734;9.112;2023-05-14T08:24:08;96446.09;;;13.50;82.01
9525;BME280;15940;48.734;9.112;2023-05-14T08:26:35;96446.56;;;13.54;81.33
9525;BME280;15940;48.734;9.112;2023-05-14T08:31:26;96442.38;;;13.53;80.19
9525;BME280;15940;48.734;9.112;2023-05-14T08:33:53;96435.00;;;13.48;78.87
9525;BME280;15940;48.734;9.112;2023-05-14T08:36:20;96432.97;;;13.78;79.11
9525;BME280;15940;48.734;9.112;2023-05-14T08:38:47;96434.28;;;13.96;79.23
9525;BME280;15940;48.734;9.112;2023-05-14T08:41:15;96442.66;;;14.22;78.41
9525;BME280;15940;48.734;9.112;2023-05-14T08:43:48;96438.63;;;14.48;77.69
9525;BME280;15940;48.734;9.112;2023-05-14T08:46:17;96430.59;;;14.93;76.63
9525;BME280;15940;48.734;9.112;2023-05-14T08:48:56;96430.16;;;15.21;75.71
9525;BME280;15940;48.734;9.112;2023-05-14T08:51:27;96424.97;;;15.50;74.32
9525;BME280;15940;48.734;9.112;2023-05-14T08:53:54;96424.84;;;15.74;70.88
9525;BME280;15940;48.734;9.112;2023-05-14T08:56:24;96420.44;;;15.84;72.36
9525;BME280;15940;48.734;9.112;2023-05-14T08:58:52;96416.53;;;15.80;71.39
9525;BME280;15940;48.734;9.112;2023-05-14T09:01:19;96417.06;;;15.78;71.20
9525;BME280;15940;48.734;9.112;2023-05-14T09:03:48;96408.34;;;16.06;69.80
9525;BME280;15940;48.734;9.112;2023-05-14T09:06:16;96413.25;;;16.34;68.05
9525;BME280;15940;48.734;9.112;2023-05-14T09:08:45;96415.72;;;16.59;67.28
9525;BME280;15940;48.734;9.112;2023-05-14T09:11:12;96422.88;;;16.62;67.16
9525;BME280;15940;48.734;9.112;2023-05-14T09:13:39;96424.41;;;16.83;68.17
9525;BME280;15940;48.734;9.112;2023-05-14T09:16:06;96426.41;;;17.04;69.14
9525;BME280;15940;48.734;9.112;2023-05-14T09:18:35;96415.34;;;16.89;66.36
9525;BME280;15940;48.734;9.112;2023-05-14T09:21:03;96416.66;;;16.74;68.63
9525;BME280;15940;48.734;9.112;2023-05-14T09:23:31;96420.94;;;16.83;66.07
9525;BME280;15940;48.734;9.112;2023-05-14T09:26:03;96406.16;;;17.20;70.30
9525;BME280;15940;48.734;9.112;2023-05-14T09:28:31;96410.81;;;17.33;68.04
9525;BME280;15940;48.734;9.112;2023-05-14T09:30:58;96410.19;;;17.48;65.49
9525;BME280;15940;48.734;9.112;2023-05-14T09:33:25;96406.56;;;17.53;63.39
9525;BME280;15940;48.734;9.112;2023-05-14T09:35:57;96413.75;;;17.35;64.22
9525;BME280;15940;48.734;9.112;2023-05-14T09:38:28;96406.34;;;17.22;62.48
9525;BME280;15940;48.734;9.112;2023-05-14T09:40:56;96407.94;;;16.97;63.24
9525;BME280;15940;48.734;9.112;2023-05-14T09:43:23;96409.31;;;16.69;63.11
9525;BME280;15940;48.734;9.112;2023-05-14T09:45:50;96402.16;;;16.53;65.21
9525;BME280;15940;48.734;9.112;2023-05-14T09:48:17;96399.25;;;16.38;65.59
9525;BME280;15940;48.734;9.112;2023-05-14T09:50:45;96403.25;;;16.37;67.55
9525;BME280;15940;48.734;9.112;2023-05-14T09:53:13;96394.44;;;16.31;64.48
9525;BME280;15940;48.734;9.112;2023-05-14T09:55:41;96399.78;;;16.36;67.53
9525;BME280;15940;48.734;9.112;2023-05-14T09:58:08;96403.59;;;16.33;65.63
9525;BME280;15940;48.734;9.112;2023-05-14T10:00:36;96393.97;;;16.53;67.18
9525;BME280;15940;48.734;9.112;2023-05-14T10:03:06;96397.03;;;16.83;62.99
9525;BME280;15940;48.734;9.112;2023-05-14T10:05:34;96394.00;;;17.08;64.42
9525;BME280;15940;48.734;9.112;2023-05-14T10:08:07;96391.94;;;17.01;64.62
9525;BME280;15940;48.734;9.112;2023-05-14T10:10:36;96390.25;;;16.98;63.04
9525;BME280;15940;48.734;9.112;2023-05-14T10:13:10;96394.72;;;16.88;66.21
9525;BME280;15940;48.734;9.112;2023-05-14T10:15:42;96392.66;;;16.80;64.69
9525;BME280;15940;48.734;9.112;2023-05-14T10:18:17;96395.50;;;16.75;65.73
9525;BME280;15940;48.734;9.112;2023-05-14T10:20:50;96393.41;;;16.68;65.59
9525;BME280;15940;48.734;9.112;2023-05-14T10:25:42;96400.56;;;16.57;64.66
9525;BME280;15940;48.734;9.112;2023-05-14T10:28:09;96395.47;;;16.41;64.98
9525;BME280;15940;48.734;9.112;2023-05-14T10:30:43;96388.13;;;16.36;66.69
9525;BME280;15940;48.734;9.112;2023-05-14T10:33:13;96392.75;;;16.27;65.97
9525;BME280;15940;48.734;9.112;2023-05-14T10:35:56;96385.28;;;16.28;66.92
9525;BME280;15940;48.734;9.112;2023-05-14T10:38:26;96388.84;;;16.36;66.68
9525;BME280;15940;48.734;9.112;2023-05-14T10:41:00;96386.94;;;16.44;66.84
9525;BME280;15940;48.734;9.112;2023-05-14T10:43:28;96381.75;;;16.54;67.43
9525;BME280;15940;48.734;9.112;2023-05-14T10:45:56;96382.47;;;16.68;67.39
9525;BME280;15940;48.734;9.112;2023-05-14T10:48:24;96383.25;;;16.89;65.60
9525;BME280;15940;48.734;9.112;2023-05-14T10:50:52;96379.16;;;17.03;64.35
9525;BME280;15940;48.734;9.112;2023-05-14T10:53:31;96364.28;;;17.12;62.01
9525;BME280;15940;48.734;9.112;2023-05-14T10:56:03;96380.59;;;17.18;63.34
9525;BME280;15940;48.734;9.112;2023-05-14T10:58:31;96376.63;;;17.05;63.92
9525;BME280;15940;48.734;9.112;2023-05-14T11:01:01;96371.69;;;16.83;61.52
9525;BME280;15940;48.734;9.112;2023-05-14T11:03:31;96364.19;;;16.63;64.38
9525;BME280;15940;48.734;9.112;2023-05-14T11:06:06;96373.22;;;16.71;66.79
9525;BME280;15940;48.734;9.112;2023-05-14T11:08:33;96366.19;;;16.96;66.33
9525;BME280;15940;48.734;9.112;2023-05-14T11:11:01;96362.47;;;17.14;62.27
9525;BME280;15940;48.734;9.112;2023-05-14T11:13:28;96345.94;;;17.49;63.34
9525;BME280;15940;48.734;9.112;2023-05-14T11:15:56;96349.13;;;17.89;63.10
9525;BME280;15940;48.734;9.112;2023-05-14T11:18:28;96345.25;;;18.28;61.47
9525;BME280;15940;48.734;9.112;2023-05-14T11:20:58;96341.69;;;18.48;61.98
9525;BME280;15940;48.734;9.112;2023-05-14T11:23:25;96351.16;;;18.32;61.66
9525;BME280;15940;48.734;9.112;2023-05-14T11:25:54;96341.81;;;17.84;61.28
9525;BME280;15940;48.734;9.112;2023-05-14T11:28:24;96338.28;;;17.47;62.74
9525;BME280;15940;48.734;9.112;2023-05-14T11:30:52;96335.53;;;17.47;64.35
9525;BME280;15940;48.734;9.112;2023-05-14T11:33:20;96324.41;;;17.81;61.84
9525;BME280;15940;48.734;9.112;2023-05-14T11:38:07;96324.50;;;18.48;62.66
9525;BME280;15940;48.734;9.112;2023-05-14T11:40:39;96323.13;;;18.77;60.95
9525;BME280;15940;48.734;9.112;2023-05-14T11:43:06;96324.41;;;18.76;62.70
9525;BME280;15940;48.734;9.112;2023-05-14T11:45:33;96331.56;;;18.20;59.60
9525;BME280;15940;48.734;9.112;2023-05-14T11:48:01;96328.16;;;17.91;63.83
9525;BME280;15940;48.734;9.112;2023-05-14T11:50:27;96328.22;;;18.14;63.45
9525;BME280;15940;48.734;9.112;2023-05-14T11:52:56;96322.66;;;18.43;64.17
9525;BME280;15940;48.734;9.112;2023-05-14T11:55:24;96319.44;;;18.75;62.68
9525;BME280;15940;48.734;9.112;2023-05-14T11:57:51;96317.72;;;18.56;58.59
9525;BME280;15940;48.734;9.112;2023-05-14T12:00:18;96314.25;;;18.41;59.32
9525;BME280;15940;48.734;9.112;2023-05-14T12:02:47;96314.94;;;18.34;59.08
9525;BME280;15940;48.734;9.112;2023-05-14T12:05:14;96317.44;;;18.16;60.57
9525;BME280;15940;48.734;9.112;2023-05-14T12:07:44;96312.81;;;17.96;62.19
9525;BME280;15940;48.734;9.112;2023-05-14T12:10:11;96314.19;;;17.74;61.68
9525;BME280;15940;48.734;9.112;2023-05-14T12:12:43;96313.56;;;17.39;62.00
9525;BME280;15940;48.734;9.112;2023-05-14T12:15:11;96311.91;;;17.08;63.12
9525;BME280;15940;48.734;9.112;2023-05-14T12:17:38;96304.50;;;16.74;62.87
9525;BME280;15940;48.734;9.112;2023-05-14T12:20:09;96307.47;;;16.63;65.19
9525;BME280;15940;48.734;9.112;2023-05-14T12:22:37;96298.81;;;16.51;65.75
9525;BME280;15940;48.734;9.112;2023-05-14T12:25:10;96296.19;;;16.46;67.14
9525;BME280;15940;48.734;9.112;2023-05-14T12:27:43;96304.94;;;16.44;66.07
9525;BME280;15940;48.734;9.112;2023-05-14T12:30:12;96287.41;;;16.40;65.02
9525;BME280;15940;48.734;9.112;2023-05-14T12:32:39;96282.25;;;16.36;65.96
9525;BME280;15940;48.734;9.112;2023-05-14T12:35:07;96288.59;;;16.31;65.72
9525;BME280;15940;48.734;9.112;2023-05-14T12:37:34;96281.16;;;16.18;66.45
9525;BME280;15940;48.734;9.112;2023-05-14T12:40:02;96285.69;;;16.16;66.33
9525;BME280;15940;48.734;9.112;2023-05-14T12:42:31;96281.59;;;16.09;65.89
9525;BME280;15940;48.734;9.112;2023-05-14T12:44:59;96285.06;;;16.10;68.65
9525;BME280;15940;48.734;9.112;2023-05-14T12:47:30;96289.69;;;16.15;67.50
9525;BME280;15940;48.734;9.112;2023-05-14T12:49:57;96289.69;;;16.15;66.54
9525;BME280;15940;48.734;9.112;2023-05-14T12:52:24;96283.06;;;16.10;65.86
9525;BME280;15940;48.734;9.112;2023-05-14T12:54:51;96281.88;;;16.19;68.07
9525;BME280;15940;48.734;9.112;2023-05-14T12:57:18;96276.84;;;16.23;67.43
9525;BME280;15940;48.734;9.112;2023-05-14T12:59:44;96281.88;;;16.19;65.80
9525;BME280;15940;48.734;9.112;2023-05-14T13:02:13;96271.47;;;16.31;68.34
9525;BME280;15940;48.734;9.112;2023-05-14T13:04:40;96271.47;;;16.93;68.03
9525;BME280;15940;48.734;9.112;2023-05-14T13:07:07;96264.69;;;17.72;65.63
9525;BME280;15940;48.734;9.112;2023-05-14T13:09:34;96257.88;;;18.17;64.02
9525;BME280;15940;48.734;9.112;2023-05-14T13:12:01;96265.31;;;18.68;60.19
9525;BME280;15940;48.734;9.112;2023-05-14T13:14:28;96251.41;;;18.89;58.86
9525;BME280;15940;48.734;9.112;2023-05-14T13:16:55;96256.13;;;19.11;60.54
9525;BME280;15940;48.734;9.112;2023-05-14T13:19:24;96246.63;;;19.04;56.63
9525;BME280;15940;48.734;9.112;2023-05-14T13:21:51;96251.06;;;18.77;57.72
9525;BME280;15940;48.734;9.112;2023-05-14T13:24:18;96250.44;;;18.55;59.31
9525;BME280;15940;48.734;9.112;2023-05-14T13:26:45;96243.72;;;18.79;60.29